sensor_id;sensor_type;location;lat;lon;timestamp;temperature;humidity
7167;DHT22;3625;51.762;14.320;2023-04-03T00:01:24;1.40;1.00
7167;DHT22;3625;51.762;14.320;2023-04-03T00:03:53;1.40;1.00
7167;DHT22;3625;51.762;14.320;2023-04-03T00:06:22;1.40;1.00
7167;DHT22;3625;51.762;14.320;2023-04-03T00:08:52;1.30;1.00
7167;DHT22;3625;51.762;14.320;2023-04-03T00:11:22;1.20;1.00
7167;DHT22;3625;51.762;14.320;2023-04-03T00:13:51;1.10;1.00
7167;DHT22;3625;51.762;14.320;2023-04-03T00:16:19;1.00;1.00
7167;DHT22;3625;51.762;14.320;2023-04-03T00:18:48;0.90;1.00
7167;DHT22;3625;51.762;14.320;2023-04-03T00:21:16;0.80;1.00
7167;DHT22;3625;51.762;14.320;2023-04-03T00:23:45;0.80;4.70
7167;DHT22;3625;51.762;14.320;2023-04-03T00:26:13;0.70;30.00
7167;DHT22;3625;51.762;14.320;2023-04-03T00:28:43;0.70;34.20
7167;DHT22;3625;51.762;14.320;2023-04-03T00:31:14;0.60;38.60
7167;DHT22;3625;51.762;14.320;2023-04-03T00:33:43;0.50;80.40
7167;DHT22;3625;51.762;14.320;2023-04-03T00:36:12;0.40;98.50
7167;DHT22;3625;51.762;14.320;2023-04-03T00:38:41;0.40;99.90
7167;DHT22;3625;51.762;14.320;2023-04-03T00:41:10;0.30;99.90
7167;DHT22;3625;51.762;14.320;2023-04-03T00:43:38;0.20;99.90
7167;DHT22;3625;51.762;14.320;2023-04-03T00:46:09;0.20;99.90
7167;DHT22;3625;51.762;14.320;2023-04-03T00:48:40;0.10;99.90
7167;DHT22;3625;51.762;14.320;2023-04-03T00:51:13;1.10;99.90
7167;DHT22;3625;51.762;14.320;2023-04-03T00:53:47;0.00;99.90
7167;DHT22;3625;51.762;14.320;2023-04-03T00:56:18;0.00;99.90
7167;DHT22;3625;51.762;14.320;2023-04-03T00:58:52;-0.10;99.90
7167;DHT22;3625;51.762;14.320;2023-04-03T01:01:28;-0.10;99.90
7167;DHT22;3625;51.762;14.320;2023-04-03T01:03:59;-0.20;99.90
7167;DHT22;3625;51.762;14.320;2023-04-03T01:06:34;0.20;99.90
7167;DHT22;3625;51.762;14.320;2023-04-03T01:09:07;-0.30;99.90
7167;DHT22;3625;51.762;14.320;2023-04-03T01:11:36;-0.40;99.90
7167;DHT22;3625;51.762;14.320;2023-04-03T01:14:04;-0.40;99.90
7167;DHT22;3625;51.762;14.320;2023-04-03T01:16:35;-0.40;99.90
7167;DHT22;3625;51.762;14.320;2023-04-03T01:19:05;-0.50;99.90
7167;DHT22;3625;51.762;14.320;2023-04-03T01:22:03;-0.60;99.90
7167;DHT22;3625;51.762;14.320;2023-04-03T01:24:44;-0.60;99.90
7167;DHT22;3625;51.762;14.320;2023-04-03T01:27:14;-0.70;99.90
7167;DHT22;3625;51.762;14.320;2023-04-03T01:29:44;-0.60;99.90
7167;DHT22;3625;51.762;14.320;2023-04-03T01:32:14;-0.60;99.90
7167;DHT22;3625;51.762;14.320;2023-04-03T01:34:43;-0.70;99.90
7167;DHT22;3625;51.762;14.320;2023-04-03T01:37:11;-0.80;99.90
7167;DHT22;3625;51.762;14.320;2023-04-03T01:39:40;-0.90;99.90
7167;DHT22;3625;51.762;14.320;2023-04-03T01:42:08;-0.90;99.90
7167;DHT22;3625;51.762;14.320;2023-04-03T01:44:41;-0.80;99.90
7167;DHT22;3625;51.762;14.320;2023-04-03T01:47:10;-0.80;99.90
7167;DHT22;3625;51.762;14.320;2023-04-03T01:49:41;-0.90;99.90
7167;DHT22;3625;51.762;14.320;2023-04-03T01:52:10;-0.90;99.90
7167;DHT22;3625;51.762;14.320;2023-04-03T01:54:38;-1.00;99.90
7167;DHT22;3625;51.762;14.320;2023-04-03T01:57:07;-1.00;99.90
7167;DHT22;3625;51.762;14.320;2023-04-03T01:59:36;-0.90;99.90
7167;DHT22;3625;51.762;14.320;2023-04-03T02:02:04;-1.00;99.90
7167;DHT22;3625;51.762;14.320;2023-04-03T02:04:33;-1.10;99.90
7167;DHT22;3625;51.762;14.320;2023-04-03T02:07:03;-1.10;99.90
7167;DHT22;3625;51.762;14.320;2023-04-03T02:09:32;-1.00;99.90
7167;DHT22;3625;51.762;14.320;2023-04-03T02:12:01;-1.10;99.90
7167;DHT22;3625;51.762;14.320;2023-04-03T02:17:00;-1.10;99.90
7167;DHT22;3625;51.762;14.320;2023-04-03T02:19:31;-0.30;99.90
7167;DHT22;3625;51.762;14.320;2023-04-03T02:22:00;-1.20;99.90
7167;DHT22;3625;51.762;14.320;2023-04-03T02:24:31;-1.30;99.90
7167;DHT22;3625;51.762;14.320;2023-04-03T02:27:00;-1.20;99.90
7167;DHT22;3625;51.762;14.320;2023-04-03T02:29:28;-1.30;99.90
7167;DHT22;3625;51.762;14.320;2023-04-03T02:31:57;-1.30;99.90
7167;DHT22;3625;51.762;14.320;2023-04-03T02:34:26;-1.20;99.90
7167;DHT22;3625;51.762;14.320;2023-04-03T02:36:55;-1.40;99.90
7167;DHT22;3625;51.762;14.320;2023-04-03T02:39:24;-1.40;99.90
7167;DHT22;3625;51.762;14.320;2023-04-03T02:41:58;-1.40;99.90
7167;DHT22;3625;51.762;14.320;2023-04-03T02:44:40;-1.40;99.90
7167;DHT22;3625;51.762;14.320;2023-04-03T02:47:09;-1.40;99.90
7167;DHT22;3625;51.762;14.320;2023-04-03T02:49:38;-1.40;99.90
7167;DHT22;3625;51.762;14.320;2023-04-03T02:52:06;-1.40;99.90
7167;DHT22;3625;51.762;14.320;2023-04-03T02:54:35;-0.70;99.90
7167;DHT22;3625;51.762;14.320;2023-04-03T02:57:08;-1.50;99.90
7167;DHT22;3625;51.762;14.320;2023-04-03T02:59:37;-1.60;99.90
7167;DHT22;3625;51.762;14.320;2023-04-03T03:02:09;-1.60;99.90
7167;DHT22;3625;51.762;14.320;2023-04-03T03:04:37;-1.40;99.90
7167;DHT22;3625;51.762;14.320;2023-04-03T03:07:06;-1.60;99.90
7167;DHT22;3625;51.762;14.320;2023-04-03T03:09:34;-1.00;99.90
7167;DHT22;3625;51.762;14.320;2023-04-03T03:12:04;-0.80;99.90
7167;DHT22;3625;51.762;14.320;2023-04-03T03:14:34;-1.70;99.90
7167;DHT22;3625;51.762;14.320;2023-04-03T03:17:03;-1.40;99.90
7167;DHT22;3625;51.762;14.320;2023-04-03T03:19:33;-1.70;99.90
7167;DHT22;3625;51.762;14.320;2023-04-03T03:22:01;-1.70;99.90
7167;DHT22;3625;51.762;14.320;2023-04-03T03:24:30;-1.60;99.90
7167;DHT22;3625;51.762;14.320;2023-04-03T03:26:58;-1.80;99.90
7167;DHT22;3625;51.762;14.320;2023-04-03T03:29:26;-1.80;99.90
7167;DHT22;3625;51.762;14.320;2023-04-03T03:31:56;-1.80;99.90
7167;DHT22;3625;51.762;14.320;2023-04-03T03:34:25;-1.90;99.90
7167;DHT22;3625;51.762;14.320;2023-04-03T03:36:53;-1.90;99.90
7167;DHT22;3625;51.762;14.320;2023-04-03T03:39:22;-1.90;99.90
7167;DHT22;3625;51.762;14.320;2023-04-03T03:41:50;-1.90;99.90
7167;DHT22;3625;51.762;14.320;2023-04-03T03:44:20;-1.90;99.90
7167;DHT22;3625;51.762;14.320;2023-04-03T03:46:49;-1.90;99.90
7167;DHT22;3625;51.762;14.320;2023-04-03T03:49:19;-1.60;99.90
7167;DHT22;3625;51.762;14.320;2023-04-03T03:51:47;-1.90;99.90
7167;DHT22;3625;51.762;14.320;2023-04-03T03:54:16;-0.30;99.90
7167;DHT22;3625;51.762;14.320;2023-04-03T03:56:45;-1.90;99.90
7167;DHT22;3625;51.762;14.320;2023-04-03T03:59:14;-0.70;99.90
7167;DHT22;3625;51.762;14.320;2023-04-03T04:01:43;-1.90;99.90
7167;DHT22;3625;51.762;14.320;2023-04-03T04:04:12;-2.00;99.90
7167;DHT22;3625;51.762;14.320;2023-04-03T04:06:42;-2.00;99.90
7167;DHT22;3625;51.762;14.320;2023-04-03T04:09:12;-2.00;99.90
7167;DHT22;3625;51.762;14.320;2023-04-03T04:11:41;-2.10;99.90
7167;DHT22;3625;51.762;14.320;2023-04-03T04:14:11;-2.00;99.90
7167;DHT22;3625;51.762;14.320;2023-04-03T04:16:42;-2.00;99.90
7167;DHT22;3625;51.762;14.320;2023-04-03T04:19:15;-2.00;99.90
7167;DHT22;3625;51.762;14.320;2023-04-03T04:21:46;-1.70;99.90
7167;DHT22;3625;51.762;14.320;2023-04-03T04:24:15;-2.00;99.90
7167;DHT22;3625;51.762;14.320;2023-04-03T04:26:44;-1.90;99.90
7167;DHT22;3625;51.762;14.320;2023-04-03T04:29:15;-1.00;99.90
7167;DHT22;3625;51.762;14.320;2023-04-03T04:31:46;-1.90;99.90
7167;DHT22;3625;51.762;14.320;2023-04-03T04:34:16;-1.90;99.90
7167;DHT22;3625;51.762;14.320;2023-04-03T04:36:46;-1.90;99.90
7167;DHT22;3625;51.762;14.320;2023-04-03T04:39:15;-1.90;99.90
7167;DHT22;3625;51.762;14.320;2023-04-03T04:41:43;-1.80;99.90
7167;DHT22;3625;51.762;14.320;2023-04-03T04:44:12;-1.80;99.90
7167;DHT22;3625;51.762;14.320;2023-04-03T04:46:41;-1.70;99.90
7167;DHT22;3625;51.762;14.320;2023-04-03T04:49:10;-1.80;99.90
7167;DHT22;3625;51.762;14.320;2023-04-03T04:51:39;-1.30;99.90
7167;DHT22;3625;51.762;14.320;2023-04-03T04:54:22;-1.70;99.90
7167;DHT22;3625;51.762;14.320;2023-04-03T04:56:51;-1.70;99.90
7167;DHT22;3625;51.762;14.320;2023-04-03T04:59:20;-1.70;99.90
7167;DHT22;3625;51.762;14.320;2023-04-03T05:01:50;-1.00;99.90
7167;DHT22;3625;51.762;14.320;2023-04-03T05:04:19;-2.30;99.90
7167;DHT22;3625;51.762;14.320;2023-04-03T05:06:53;-1.60;99.90
7167;DHT22;3625;51.762;14.320;2023-04-03T05:09:26;-1.00;99.90
7167;DHT22;3625;51.762;14.320;2023-04-03T05:11:55;-1.30;99.90
7167;DHT22;3625;51.762;14.320;2023-04-03T05:14:27;-1.30;99.90
7167;DHT22;3625;51.762;14.320;2023-04-03T05:17:00;-1.40;99.90
7167;DHT22;3625;51.762;14.320;2023-04-03T05:19:32;-0.80;99.90
7167;DHT22;3625;51.762;14.320;2023-04-03T05:22:02;-1.20;99.90
7167;DHT22;3625;51.762;14.320;2023-04-03T05:24:32;-1.20;99.90
7167;DHT22;3625;51.762;14.320;2023-04-03T05:27:02;-1.20;99.90
7167;DHT22;3625;51.762;14.320;2023-04-03T05:29:33;-1.10;99.90
7167;DHT22;3625;51.762;14.320;2023-04-03T05:32:03;-1.00;99.90
7167;DHT22;3625;51.762;14.320;2023-04-03T05:34:33;-0.90;99.90
7167;DHT22;3625;51.762;14.320;2023-04-03T05:37:03;-0.90;99.90
7167;DHT22;3625;51.762;14.320;2023-04-03T05:39:34;-0.80;99.90
7167;DHT22;3625;51.762;14.320;2023-04-03T05:42:05;-0.80;99.90
7167;DHT22;3625;51.762;14.320;2023-04-03T05:44:34;-0.70;99.90
7167;DHT22;3625;51.762;14.320;2023-04-03T05:47:03;-0.70;99.90
7167;DHT22;3625;51.762;14.320;2023-04-03T05:49:32;-0.50;99.90
7167;DHT22;3625;51.762;14.320;2023-04-03T05:52:01;-0.60;99.90
7167;DHT22;3625;51.762;14.320;2023-04-03T05:54:31;-0.50;99.90
7167;DHT22;3625;51.762;14.320;2023-04-03T05:57:12;-0.40;99.90
7167;DHT22;3625;51.762;14.320;2023-04-03T05:59:42;-0.40;99.90
7167;DHT22;3625;51.762;14.320;2023-04-03T06:02:12;-0.30;99.90
7167;DHT22;3625;51.762;14.320;2023-04-03T06:04:42;-0.30;99.90
7167;DHT22;3625;51.762;14.320;2023-04-03T06:07:12;-0.20;99.90
7167;DHT22;3625;51.762;14.320;2023-04-03T06:09:42;-0.20;99.90
7167;DHT22;3625;51.762;14.320;2023-04-03T06:12:13;-0.10;99.90
7167;DHT22;3625;51.762;14.320;2023-04-03T06:14:41;0.00;99.90
7167;DHT22;3625;51.762;14.320;2023-04-03T06:17:10;0.00;99.90
7167;DHT22;3625;51.762;14.320;2023-04-03T06:19:40;0.00;99.90
7167;DHT22;3625;51.762;14.320;2023-04-03T06:22:09;0.20;99.90
7167;DHT22;3625;51.762;14.320;2023-04-03T06:24:38;0.10;99.90
7167;DHT22;3625;51.762;14.320;2023-04-03T06:27:07;0.20;99.90
7167;DHT22;3625;51.762;14.320;2023-04-03T06:29:39;1.30;99.90
7167;DHT22;3625;51.762;14.320;2023-04-03T06:32:07;0.30;99.90
7167;DHT22;3625;51.762;14.320;2023-04-03T06:34:36;0.40;99.90
7167;DHT22;3625;51.762;14.320;2023-04-03T06:37:05;0.40;8.80
7167;DHT22;3625;51.762;14.320;2023-04-03T06:39:34;0.50;1.00
7167;DHT22;3625;51.762;14.320;2023-04-03T06:42:02;0.60;1.00
7167;DHT22;3625;51.762;14.320;2023-04-03T06:44:38;0.60;1.00
7167;DHT22;3625;51.762;14.320;2023-04-03T06:47:09;0.70;1.00
7167;DHT22;3625;51.762;14.320;2023-04-03T06:49:41;1.40;1.00
7167;DHT22;3625;51.762;14.320;2023-04-03T06:54:40;1.00;99.90
7167;DHT22;3625;51.762;14.320;2023-04-03T06:59:39;1.10;99.90
7167;DHT22;3625;51.762;14.320;2023-04-03T07:02:10;1.10;99.90
7167;DHT22;3625;51.762;14.320;2023-04-03T07:14:39;1.40;99.90
7167;DHT22;3625;51.762;14.320;2023-04-03T07:17:08;1.40;1.00
7167;DHT22;3625;51.762;14.320;2023-04-03T07:19:36;1.60;1.00
7167;DHT22;3625;51.762;14.320;2023-04-03T07:32:03;1.70;1.00
7167;DHT22;3625;51.762;14.320;2023-04-03T07:37:01;1.80;99.90
7167;DHT22;3625;51.762;14.320;2023-04-03T07:39:31;1.90;1.00
7167;DHT22;3625;51.762;14.320;2023-04-03T07:46:58;-0.70;99.90
7167;DHT22;3625;51.762;14.320;2023-04-03T08:44:25;3.50;99.90
7167;DHT22;3625;51.762;14.320;2023-04-03T08:47:11;3.60;99.90
7167;DHT22;3625;51.762;14.320;2023-04-03T08:49:53;3.60;99.90
7167;DHT22;3625;51.762;14.320;2023-04-03T08:52:31;3.70;99.90
7167;DHT22;3625;51.762;14.320;2023-04-03T08:55:13;3.90;99.90
7167;DHT22;3625;51.762;14.320;2023-04-03T08:57:50;4.00;99.90
7167;DHT22;3625;51.762;14.320;2023-04-03T09:00:30;3.90;99.90
7167;DHT22;3625;51.762;14.320;2023-04-03T09:03:10;4.20;99.90
7167;DHT22;3625;51.762;14.320;2023-04-03T09:05:45;4.80;99.90
7167;DHT22;3625;51.762;14.320;2023-04-03T09:08:27;5.50;99.90
7167;DHT22;3625;51.762;14.320;2023-04-03T09:11:13;6.00;99.90
7167;DHT22;3625;51.762;14.320;2023-04-03T09:13:51;6.00;99.90
7167;DHT22;3625;51.762;14.320;2023-04-03T09:16:35;5.90;99.90
7167;DHT22;3625;51.762;14.320;2023-04-03T09:19:17;6.10;99.90
7167;DHT22;3625;51.762;14.320;2023-04-03T09:21:53;6.40;99.90
7167;DHT22;3625;51.762;14.320;2023-04-03T09:26:57;6.50;99.90
7167;DHT22;3625;51.762;14.320;2023-04-03T09:32:00;5.70;99.90
7167;DHT22;3625;51.762;14.320;2023-04-03T09:34:35;5.60;99.90
7167;DHT22;3625;51.762;14.320;2023-04-03T09:37:05;5.40;99.90
7167;DHT22;3625;51.762;14.320;2023-04-03T09:39:49;5.40;99.90
7167;DHT22;3625;51.762;14.320;2023-04-03T09:42:22;5.90;99.90
7167;DHT22;3625;51.762;14.320;2023-04-03T09:44:54;6.10;99.90
7167;DHT22;3625;51.762;14.320;2023-04-03T09:47:26;6.40;99.90
7167;DHT22;3625;51.762;14.320;2023-04-03T09:50:19;6.00;99.90
7167;DHT22;3625;51.762;14.320;2023-04-03T09:52:51;5.90;99.90
7167;DHT22;3625;51.762;14.320;2023-04-03T09:55:21;6.10;99.90
7167;DHT22;3625;51.762;14.320;2023-04-03T09:57:57;6.30;99.90
7167;DHT22;3625;51.762;14.320;2023-04-03T10:00:31;6.90;99.90
7167;DHT22;3625;51.762;14.320;2023-04-03T10:03:04;7.30;99.90
7167;DHT22;3625;51.762;14.320;2023-04-03T10:05:36;7.30;99.90
7167;DHT22;3625;51.762;14.320;2023-04-03T10:08:20;7.00;99.90
7167;DHT22;3625;51.762;14.320;2023-04-03T10:11:10;7.00;99.90
7167;DHT22;3625;51.762;14.320;2023-04-03T10:13:53;7.00;99.90
7167;DHT22;3625;51.762;14.320;2023-04-03T10:16:32;7.20;99.90
7167;DHT22;3625;51.762;14.320;2023-04-03T10:19:32;7.30;99.90
7167;DHT22;3625;51.762;14.320;2023-04-03T10:22:12;7.40;99.90
7167;DHT22;3625;51.762;14.320;2023-04-03T10:25:00;7.50;99.90
7167;DHT22;3625;51.762;14.320;2023-04-03T10:27:41;7.30;99.90
7167;DHT22;3625;51.762;14.320;2023-04-03T10:30:34;7.10;99.90
7167;DHT22;3625;51.762;14.320;2023-04-03T10:33:27;7.20;99.90
7167;DHT22;3625;51.762;14.320;2023-04-03T10:36:23;7.60;99.90
7167;DHT22;3625;51.762;14.320;2023-04-03T10:39:08;7.70;99.90
7167;DHT22;3625;51.762;14.320;2023-04-03T10:41:56;7.50;99.90
7167;DHT22;3625;51.762;14.320;2023-04-03T10:44:52;7.20;99.90
7167;DHT22;3625;51.762;14.320;2023-04-03T10:47:36;7.00;99.90
7167;DHT22;3625;51.762;14.320;2023-04-03T10:50:38;7.30;99.90
7167;DHT22;3625;51.762;14.320;2023-04-03T10:53:17;7.40;99.90
7167;DHT22;3625;51.762;14.320;2023-04-03T10:56:00;7.50;99.90
7167;DHT22;3625;51.762;14.320;2023-04-03T10:58:38;6.90;99.90
7167;DHT22;3625;51.762;14.320;2023-04-03T11:01:15;7.10;99.90
7167;DHT22;3625;51.762;14.320;2023-04-03T11:03:52;7.40;99.90
7167;DHT22;3625;51.762;14.320;2023-04-03T11:06:26;7.00;99.90
7167;DHT22;3625;51.762;14.320;2023-04-03T11:09:07;6.70;99.90
7167;DHT22;3625;51.762;14.320;2023-04-03T11:14:18;7.00;99.90
7167;DHT22;3625;51.762;14.320;2023-04-03T11:17:00;7.50;99.90
7167;DHT22;3625;51.762;14.320;2023-04-03T11:19:42;7.50;99.90
7167;DHT22;3625;51.762;14.320;2023-04-03T11:22:23;6.20;99.90
7167;DHT22;3625;51.762;14.320;2023-04-03T11:25:04;5.60;99.90
7167;DHT22;3625;51.762;14.320;2023-04-03T11:27:44;7.10;99.90
7167;DHT22;3625;51.762;14.320;2023-04-03T11:30:20;6.40;99.90
7167;DHT22;3625;51.762;14.320;2023-04-03T11:36:21;7.60;99.90
7167;DHT22;3625;51.762;14.320;2023-04-03T11:39:13;7.50;99.90
7167;DHT22;3625;51.762;14.320;2023-04-03T11:41:48;7.70;99.90
7167;DHT22;3625;51.762;14.320;2023-04-03T11:44:32;7.50;99.90
7167;DHT22;3625;51.762;14.320;2023-04-03T11:47:05;7.70;99.90
7167;DHT22;3625;51.762;14.320;2023-04-03T11:49:55;7.70;99.90
7167;DHT22;3625;51.762;14.320;2023-04-03T11:53:09;7.50;99.90
7167;DHT22;3625;51.762;14.320;2023-04-03T11:55:58;7.80;99.90
7167;DHT22;3625;51.762;14.320;2023-04-03T11:58:30;8.10;99.90
7167;DHT22;3625;51.762;14.320;2023-04-03T12:01:08;8.40;99.90
7167;DHT22;3625;51.762;14.320;2023-04-03T12:04:06;8.60;99.90
7167;DHT22;3625;51.762;14.320;2023-04-03T12:10:14;8.50;99.90
7167;DHT22;3625;51.762;14.320;2023-04-03T12:12:58;8.60;99.90
7167;DHT22;3625;51.762;14.320;2023-04-03T12:15:50;8.40;99.90
7167;DHT22;3625;51.762;14.320;2023-04-03T12:18:55;7.70;99.90
7167;DHT22;3625;51.762;14.320;2023-04-03T12:24:38;7.40;99.90
7167;DHT22;3625;51.762;14.320;2023-04-03T12:27:37;7.30;99.90
7167;DHT22;3625;51.762;14.320;2023-04-03T12:30:16;7.40;99.90
7167;DHT22;3625;51.762;14.320;2023-04-03T12:33:18;7.70;99.90
7167;DHT22;3625;51.762;14.320;2023-04-03T12:36:01;8.00;99.90
7167;DHT22;3625;51.762;14.320;2023-04-03T12:39:05;8.40;99.90
7167;DHT22;3625;51.762;14.320;2023-04-03T12:41:49;8.10;99.90
7167;DHT22;3625;51.762;14.320;2023-04-03T12:44:37;8.00;99.90
7167;DHT22;3625;51.762;14.320;2023-04-03T12:47:24;8.10;99.90
7167;DHT22;3625;51.762;14.320;2023-04-03T12:49:57;7.80;99.90
7167;DHT22;3625;51.762;14.320;2023-04-03T12:52:33;7.90;99.90
7167;DHT22;3625;51.762;14.320;2023-04-03T12:55:17;8.10;99.90
7167;DHT22;3625;51.762;14.320;2023-04-03T12:57:47;8.00;99.90
7167;DHT22;3625;51.762;14.320;2023-04-03T13:00:30;7.70;99.90
7167;DHT22;3625;51.762;14.320;2023-04-03T13:03:02;7.90;99.90
7167;DHT22;3625;51.762;14.320;2023-04-03T13:05:33;7.80;99.90
7167;DHT22;3625;51.762;14.320;2023-04-03T13:08:05;7.70;99.90
7167;DHT22;3625;51.762;14.320;2023-04-03T13:10:48;7.70;99.90
7167;DHT22;3625;51.762;14.320;2023-04-03T13:13:22;7.40;99.90
7167;DHT22;3625;51.762;14.320;2023-04-03T13:15:53;7.60;99.90
7167;DHT22;3625;51.762;14.320;2023-04-03T13:18:24;7.40;99.90
7167;DHT22;3625;51.762;14.320;2023-04-03T13:20:58;7.20;99.90
7167;DHT22;3625;51.762;14.320;2023-04-03T13:23:31;6.90;99.90
7167;DHT22;3625;51.762;14.320;2023-04-03T13:26:04;6.80;99.90
7167;DHT22;3625;51.762;14.320;2023-04-03T13:28:34;6.50;99.90
7167;DHT22;3625;51.762;14.320;2023-04-03T13:31:08;6.50;99.90
7167;DHT22;3625;51.762;14.320;2023-04-03T13:33:55;6.60;99.90
7167;DHT22;3625;51.762;14.320;2023-04-03T13:36:29;6.80;99.90
7167;DHT22;3625;51.762;14.320;2023-04-03T13:39:03;6.70;99.90
7167;DHT22;3625;51.762;14.320;2023-04-03T13:41:35;7.00;99.90
7167;DHT22;3625;51.762;14.320;2023-04-03T13:44:33;6.40;99.90
7167;DHT22;3625;51.762;14.320;2023-04-03T13:47:19;6.40;99.90
7167;DHT22;3625;51.762;14.320;2023-04-03T13:50:01;7.20;99.90
7167;DHT22;3625;51.762;14.320;2023-04-03T13:52:38;7.20;99.90
7167;DHT22;3625;51.762;14.320;2023-04-03T13:55:18;7.20;99.90
7167;DHT22;3625;51.762;14.320;2023-04-03T13:57:56;7.20;99.90
7167;DHT22;3625;51.762;14.320;2023-04-03T14:00:33;7.30;99.90
7167;DHT22;3625;51.762;14.320;2023-04-03T14:03:19;7.30;99.90
7167;DHT22;3625;51.762;14.320;2023-04-03T14:05:50;7.40;99.90
7167;DHT22;3625;51.762;14.320;2023-04-03T14:08:18;7.50;99.90
7167;DHT22;3625;51.762;14.320;2023-04-03T14:11:01;7.70;99.90
7167;DHT22;3625;51.762;14.320;2023-04-03T14:13:31;7.80;99.90
7167;DHT22;3625;51.762;14.320;2023-04-03T14:18:43;6.90;99.90
7167;DHT22;3625;51.762;14.320;2023-04-03T14:21:13;6.80;99.90
7167;DHT22;3625;51.762;14.320;2023-04-03T14:26:13;6.10;99.90
7167;DHT22;3625;51.762;14.320;2023-04-03T14:28:45;6.40;99.90
7167;DHT22;3625;51.762;14.320;2023-04-03T14:31:16;6.90;99.90
7167;DHT22;3625;51.762;14.320;2023-04-03T14:33:47;7.20;99.90
7167;DHT22;3625;51.762;14.320;2023-04-03T14:36:20;7.20;99.90
7167;DHT22;3625;51.762;14.320;2023-04-03T14:38:50;7.10;99.90
7167;DHT22;3625;51.762;14.320;2023-04-03T14:41:21;6.70;99.90
7167;DHT22;3625;51.762;14.320;2023-04-03T14:43:52;6.20;99.90
7167;DHT22;3625;51.762;14.320;2023-04-03T14:46:24;5.90;99.90
7167;DHT22;3625;51.762;14.320;2023-04-03T14:49:14;5.70;99.90
7167;DHT22;3625;51.762;14.320;2023-04-03T14:51:43;5.30;99.90
7167;DHT22;3625;51.762;14.320;2023-04-03T14:54:14;7.00;99.90
7167;DHT22;3625;51.762;14.320;2023-04-03T15:01:44;6.00;99.90
7167;DHT22;3625;51.762;14.320;2023-04-03T15:04:15;6.00;99.90
7167;DHT22;3625;51.762;14.320;2023-04-03T15:06:45;5.50;99.90
7167;DHT22;3625;51.762;14.320;2023-04-03T15:09:20;5.30;99.90
7167;DHT22;3625;51.762;14.320;2023-04-03T15:11:51;5.00;99.90
7167;DHT22;3625;51.762;14.320;2023-04-03T15:14:21;4.90;99.90
7167;DHT22;3625;51.762;14.320;2023-04-03T15:17:03;4.90;99.90
7167;DHT22;3625;51.762;14.320;2023-04-03T15:19:37;4.90;99.90
7167;DHT22;3625;51.762;14.320;2023-04-03T15:24:36;5.20;99.90
7167;DHT22;3625;51.762;14.320;2023-04-03T15:27:05;5.30;99.90
7167;DHT22;3625;51.762;14.320;2023-04-03T15:44:33;5.40;99.90
7167;DHT22;3625;51.762;14.320;2023-04-03T15:49:34;5.50;99.90
7167;DHT22;3625;51.762;14.320;2023-04-03T15:52:03;5.50;99.90
7167;DHT22;3625;51.762;14.320;2023-04-03T15:57:00;5.60;99.90
7167;DHT22;3625;51.762;14.320;2023-04-03T16:01:59;5.70;99.90
7167;DHT22;3625;51.762;14.320;2023-04-03T16:04:34;5.80;99.90
7167;DHT22;3625;51.762;14.320;2023-04-03T16:07:03;5.90;99.90
7167;DHT22;3625;51.762;14.320;2023-04-03T16:09:32;6.00;99.90
7167;DHT22;3625;51.762;14.320;2023-04-03T16:12:02;6.20;99.90
7167;DHT22;3625;51.762;14.320;2023-04-03T16:14:31;6.10;99.90
7167;DHT22;3625;51.762;14.320;2023-04-03T16:17:00;5.90;99.90
7167;DHT22;3625;51.762;14.320;2023-04-03T16:19:29;5.80;99.90
7167;DHT22;3625;51.762;14.320;2023-04-03T16:21:59;5.70;99.90
7167;DHT22;3625;51.762;14.320;2023-04-03T16:24:29;5.70;99.90
7167;DHT22;3625;51.762;14.320;2023-04-03T16:26:58;5.80;99.90
7167;DHT22;3625;51.762;14.320;2023-04-03T16:31:56;5.70;99.90
7167;DHT22;3625;51.762;14.320;2023-04-03T16:34:26;5.60;99.90
7167;DHT22;3625;51.762;14.320;2023-04-03T16:51:51;4.90;99.90
7167;DHT22;3625;51.762;14.320;2023-04-03T16:54:21;4.80;99.90
7167;DHT22;3625;51.762;14.320;2023-04-03T16:59:19;4.70;99.90
7167;DHT22;3625;51.762;14.320;2023-04-03T17:04:16;4.60;99.90
7167;DHT22;3625;51.762;14.320;2023-04-03T17:09:14;5.30;99.90
7167;DHT22;3625;51.762;14.320;2023-04-03T17:11:44;4.50;99.90
7167;DHT22;3625;51.762;14.320;2023-04-03T17:16:44;4.30;99.90
7167;DHT22;3625;51.762;14.320;2023-04-03T17:21:43;6.40;99.90
7167;DHT22;3625;51.762;14.320;2023-04-03T17:24:13;4.40;99.90
7167;DHT22;3625;51.762;14.320;2023-04-03T17:26:43;4.30;99.90
7167;DHT22;3625;51.762;14.320;2023-04-03T17:36:39;4.20;99.90
7167;DHT22;3625;51.762;14.320;2023-04-03T17:44:07;4.10;99.90
7167;DHT22;3625;51.762;14.320;2023-04-03T18:01:34;3.90;99.90
7167;DHT22;3625;51.762;14.320;2023-04-03T18:04:03;3.90;99.90
7167;DHT22;3625;51.762;14.320;2023-04-03T18:06:36;3.70;99.90
7167;DHT22;3625;51.762;14.320;2023-04-03T18:09:11;3.80;99.90
7167;DHT22;3625;51.762;14.320;2023-04-03T18:11:43;3.80;99.90
7167;DHT22;3625;51.762;14.320;2023-04-03T18:14:15;3.80;99.90
7167;DHT22;3625;51.762;14.320;2023-04-03T18:16:48;3.80;99.90
7167;DHT22;3625;51.762;14.320;2023-04-03T18:21:50;3.80;99.90
7167;DHT22;3625;51.762;14.320;2023-04-03T18:24:21;3.70;99.90
7167;DHT22;3625;51.762;14.320;2023-04-03T18:26:53;3.80;99.90
7167;DHT22;3625;51.762;14.320;2023-04-03T18:29:26;3.70;99.90
7167;DHT22;3625;51.762;14.320;2023-04-03T18:32:00;3.70;99.90
7167;DHT22;3625;51.762;14.320;2023-04-03T18:34:31;3.70;99.90
7167;DHT22;3625;51.762;14.320;2023-04-03T18:42:02;3.60;99.90
7167;DHT22;3625;51.762;14.320;2023-04-03T18:44:34;3.60;99.90
7167;DHT22;3625;51.762;14.320;2023-04-03T18:47:06;3.60;99.90
7167;DHT22;3625;51.762;14.320;2023-04-03T18:49:37;3.60;99.90
7167;DHT22;3625;51.762;14.320;2023-04-03T18:52:09;3.60;99.90
7167;DHT22;3625;51.762;14.320;2023-04-03T18:54:38;3.50;99.90
7167;DHT22;3625;51.762;14.320;2023-04-03T18:59:35;3.50;99.90
7167;DHT22;3625;51.762;14.320;2023-04-03T19:02:06;3.50;99.90
7167;DHT22;3625;51.762;14.320;2023-04-03T19:04:36;3.50;99.90
7167;DHT22;3625;51.762;14.320;2023-04-03T19:12:05;3.40;99.90
7167;DHT22;3625;51.762;14.320;2023-04-03T19:19:35;3.40;99.90
7167;DHT22;3625;51.762;14.320;2023-04-03T19:24:33;3.40;99.90
7167;DHT22;3625;51.762;14.320;2023-04-03T19:34:28;3.30;99.90
7167;DHT22;3625;51.762;14.320;2023-04-03T19:36:58;3.30;99.90
7167;DHT22;3625;51.762;14.320;2023-04-03T19:42:01;3.20;99.90
7167;DHT22;3625;51.762;14.320;2023-04-03T19:44:30;4.90;99.90
7167;DHT22;3625;51.762;14.320;2023-04-03T19:47:01;3.20;99.90
7167;DHT22;3625;51.762;14.320;2023-04-03T19:49:30;3.20;99.90
7167;DHT22;3625;51.762;14.320;2023-04-03T19:52:00;3.20;99.90
7167;DHT22;3625;51.762;14.320;2023-04-03T19:54:29;3.20;99.90
7167;DHT22;3625;51.762;14.320;2023-04-03T19:59:26;3.10;99.90
7167;DHT22;3625;51.762;14.320;2023-04-03T20:01:55;3.10;99.90
7167;DHT22;3625;51.762;14.320;2023-04-03T20:04:24;3.10;99.90
7167;DHT22;3625;51.762;14.320;2023-04-03T20:09:24;3.10;99.90
7167;DHT22;3625;51.762;14.320;2023-04-03T20:21:52;2.20;99.90
7167;DHT22;3625;51.762;14.320;2023-04-03T20:24:21;3.00;99.90
7167;DHT22;3625;51.762;14.320;2023-04-03T20:34:22;3.00;99.90
7167;DHT22;3625;51.762;14.320;2023-04-03T20:39:19;3.00;99.90
7167;DHT22;3625;51.762;14.320;2023-04-03T20:41:51;3.00;99.90
7167;DHT22;3625;51.762;14.320;2023-04-03T20:46:49;2.90;99.90
7167;DHT22;3625;51.762;14.320;2023-04-03T20:49:20;2.90;99.90
7167;DHT22;3625;51.762;14.320;2023-04-03T20:54:18;3.00;99.90
7167;DHT22;3625;51.762;14.320;2023-04-03T20:59:18;2.90;99.90
7167;DHT22;3625;51.762;14.320;2023-04-03T21:04:19;2.90;99.90